Time;durP1;ratioP1;P1;durP2;ratioP2;P2;SDS_P1;SDS_P2;PMS_P1;PMS_P2;Temp;Humidity;BMP_temperature;BMP_pressure;BME280_temperature;BME280_humidity;BME280_pressure;Samples;Min_cycle;Max_cycle;Signal;HPM_P1;HPM_P2
2021/03/03 00:00:56;58622.00;0.20;102.09;0.00;0.00;0.62;;;;;13.00;1.00;;;;;;2271910;61;1003;-90
2021/03/03 00:03:22;196932.00;0.66;340.64;40135.00;0.13;70.12;;;;;12.20;1.00;;;;;;2271947;61;1047;-89
2021/03/03 00:05:50;150535.00;0.50;260.73;0.00;0.00;0.62;;;;;11.70;1.00;;;;;;2271977;61;927;-89
2021/03/03 00:08:16;85208.00;0.28;148.03;0.00;0.00;0.62;;;;;11.90;1.00;;;;;;2271861;61;1447;-91
2021/03/03 00:10:43;41931.00;0.14;73.23;0.00;0.00;0.62;;;;;11.90;1.00;;;;;;2263558;61;2004;-89
2021/03/03 00:13:10;340159.00;1.13;586.95;11918.00;0.04;21.27;;;;;11.80;1.00;;;;;;2254718;61;1006;-89
2021/03/03 00:15:37;8897.00;0.03;16.04;0.00;0.00;0.62;;;;;11.70;1.00;;;;;;2263710;61;997;-90
2021/03/03 00:18:03;69526.00;0.23;120.94;0.00;0.00;0.62;;;;;11.30;1.00;;;;;;2251736;61;1357;-86
2021/03/03 00:20:30;89681.00;0.30;155.76;0.00;0.00;0.62;;;;;10.90;1.00;;;;;;2248487;61;1003;-87
2021/03/03 00:22:57;46764.00;0.16;81.59;0.00;0.00;0.62;;;;;10.70;1.00;;;;;;2251821;61;969;-85
2021/03/03 00:25:24;121378.00;0.40;210.46;0.00;0.00;0.62;;;;;10.00;1.00;;;;;;2245229;61;975;-87
2021/03/03 00:27:50;156556.00;0.52;271.11;0.00;0.00;0.62;;;;;9.60;1.00;;;;;;2252665;61;1368;-87
2021/03/03 00:30:18;71453.00;0.24;124.27;0.00;0.00;0.62;;;;;9.70;1.00;;;;;;2259736;61;1990;-87
2021/03/03 00:32:45;25857.00;0.09;45.41;0.00;0.00;0.62;;;;;9.40;1.00;;;;;;2254054;61;948;-86
2021/03/03 00:35:12;64014.00;0.21;111.42;0.00;0.00;0.62;;;;;9.20;1.00;;;;;;2265482;61;1004;-86
2021/03/03 00:37:39;242857.00;0.81;419.67;0.00;0.00;0.62;;;;;9.20;1.00;;;;;;2272512;61;1357;-86
2021/03/03 00:40:08;71438.00;0.24;124.25;0.00;0.00;0.62;;;;;9.20;1.00;;;;;;2269254;61;1016;-86
2021/03/03 00:42:35;114576.00;0.38;198.73;0.00;0.00;0.62;;;;;9.10;1.00;;;;;;2269201;61;1006;-88
2021/03/03 00:45:03;54387.00;0.18;94.77;0.00;0.00;0.62;;;;;9.50;1.00;;;;;;2276362;61;906;-87
2021/03/03 00:47:29;51677.00;0.17;90.09;0.00;0.00;0.62;;;;;10.10;1.00;;;;;;2276324;61;1424;-88
2021/03/03 00:49:56;138368.00;0.46;239.76;0.00;0.00;0.62;;;;;11.00;1.00;;;;;;2271774;61;994;-90
2021/03/03 00:52:25;5569.00;0.02;10.27;0.00;0.00;0.62;;;;;11.60;1.00;;;;;;2259611;61;1924;-90
2021/03/03 00:54:51;29482.00;0.10;51.69;0.00;0.00;0.62;;;;;12.10;1.00;;;;;;2259458;61;1100;-88
2021/03/03 00:57:19;98691.00;0.33;171.31;0.00;0.00;0.62;;;;;12.50;1.00;;;;;;2251634;61;1415;-90
2021/03/03 00:59:45;179658.00;0.60;310.90;0.00;0.00;0.62;;;;;12.70;1.00;;;;;;2251584;61;1735;-90
2021/03/03 01:02:12;56269.00;0.19;98.03;0.00;0.00;0.62;;;;;12.90;1.00;;;;;;2251595;61;1735;-90
2021/03/03 01:04:38;82447.00;0.27;143.26;0.00;0.00;0.62;;;;;12.30;1.00;;;;;;2251754;61;1023;-89
2021/03/03 01:07:05;52911.00;0.18;92.22;0.00;0.00;0.62;;;;;12.00;1.00;;;;;;2252703;61;1350;-90
2021/03/03 01:09:31;19998.00;0.07;35.27;0.00;0.00;0.62;;;;;11.70;1.00;;;;;;2254597;61;955;-90
2021/03/03 01:11:58;1960.00;0.01;4.02;0.00;0.00;0.62;;;;;11.50;1.00;;;;;;2271759;61;1991;-90
2021/03/03 01:14:25;491625.00;1.64;847.41;68231.00;0.23;118.70;;;;;11.90;1.00;;;;;;2262281;61;993;-91
2021/03/03 01:16:53;165128.00;0.55;285.87;0.00;0.00;0.62;;;;;12.40;1.00;;;;;;2276256;61;1438;-90
2021/03/03 01:19:20;193003.00;0.64;333.88;20807.00;0.07;36.67;;;;;12.50;1.00;;;;;;2276219;61;1122;-89
2021/03/03 01:21:47;84935.00;0.28;147.56;0.00;0.00;0.62;;;;;12.50;1.00;;;;;;2276256;61;1037;-89
2021/03/03 01:24:13;59636.00;0.20;103.85;0.00;0.00;0.62;;;;;12.30;1.00;;;;;;2271935;61;1009;-90
2021/03/03 01:26:40;219329.00;0.73;379.19;43910.00;0.15;76.65;;;;;12.30;1.00;;;;;;2260225;61;1274;-90
2021/03/03 01:29:07;46578.00;0.16;81.27;0.00;0.00;0.62;;;;;12.10;1.00;;;;;;2252307;61;1084;-90
2021/03/03 01:31:35;63007.00;0.21;109.67;0.00;0.00;0.62;;;;;12.10;1.00;;;;;;2252298;61;1910;-89
2021/03/03 01:34:02;66646.00;0.22;115.96;0.00;0.00;0.62;;;;;12.10;1.00;;;;;;2252387;61;1037;-90
2021/03/03 01:36:28;108656.00;0.36;188.51;0.00;0.00;0.62;;;;;12.40;1.00;;;;;;2252285;61;1332;-90
2021/03/03 01:38:55;68208.00;0.23;118.66;0.00;0.00;0.62;;;;;12.50;1.00;;;;;;2249036;61;965;-90
2021/03/03 01:41:21;426456.00;1.42;735.29;93225.00;0.31;161.88;;;;;12.50;1.00;;;;;;2253242;61;1053;-90
2021/03/03 01:43:48;283459.00;0.94;489.48;20153.00;0.07;35.54;;;;;12.40;1.00;;;;;;2261750;61;1037;-90
2021/03/03 01:46:14;4065.00;0.01;7.67;0.00;0.00;0.62;;;;;12.20;1.00;;;;;;2272930;61;1015;-91
2021/03/03 01:48:42;0.00;0.00;0.62;0.00;0.00;0.62;;;;;12.20;1.00;;;;;;2276856;61;1455;-91
2021/03/03 01:51:09;36347.00;0.12;63.57;0.00;0.00;0.62;;;;;12.10;1.00;;;;;;2276857;61;1927;-90
2021/03/03 01:53:35;156337.00;0.52;270.73;0.00;0.00;0.62;;;;;12.00;1.00;;;;;;2276913;61;1021;-90
2021/03/03 01:56:02;89229.00;0.30;154.98;0.00;0.00;0.62;;;;;11.70;1.00;;;;;;2276814;61;1800;-90
2021/03/03 01:58:29;22450.00;0.07;39.51;0.00;0.00;0.62;;;;;11.40;1.00;;;;;;2276860;61;1373;-89
2021/03/03 02:00:55;59957.00;0.20;104.40;0.00;0.00;0.62;;;;;11.70;1.00;;;;;;2268165;61;1033;-91
2021/03/03 02:03:23;122100.00;0.41;211.70;0.00;0.00;0.62;;;;;12.00;1.00;;;;;;2268272;61;988;-90
2021/03/03 02:05:55;208841.00;0.70;361.14;0.00;0.00;0.62;;;;;12.00;1.00;;;;;;2268323;61;1040;-90
2021/03/03 02:08:29;477962.00;1.59;823.89;225197.00;0.75;389.29;;;;;11.70;1.00;;;;;;2261522;61;1491;-89
2021/03/03 02:11:04;68862.00;0.23;119.79;0.00;0.00;0.62;;;;;11.20;1.00;;;;;;2268222;61;1933;-87
2021/03/03 02:13:35;114773.00;0.38;199.07;0.00;0.00;0.62;;;;;10.40;1.00;;;;;;2261581;61;924;-88
2021/03/03 02:16:05;81866.00;0.27;142.26;0.00;0.00;0.62;;;;;9.80;1.00;;;;;;2260137;61;937;-88
2021/03/03 02:18:34;16730.00;0.06;29.61;0.00;0.00;0.62;;;;;9.70;1.00;;;;;;2257378;61;1514;-86
2021/03/03 02:21:09;129308.00;0.43;224.14;31734.00;0.11;55.58;;;;;9.90;1.00;;;;;;2260234;61;1023;-87
2021/03/03 02:23:44;144847.00;0.48;250.93;18350.00;0.06;32.41;;;;;9.90;1.00;;;;;;2260113;61;1004;-86
2021/03/03 02:26:13;107167.00;0.36;185.94;19303.00;0.06;34.06;;;;;9.80;1.00;;;;;;2260138;61;1011;-87
2021/03/03 02:28:40;197175.00;0.66;341.06;0.00;0.00;0.62;;;;;10.00;1.00;;;;;;2256783;61;1365;-87
2021/03/03 02:31:07;110755.00;0.37;192.13;27729.00;0.09;48.65;;;;;10.10;1.00;;;;;;2260070;61;2002;-87
2021/03/03 02:33:34;196326.00;0.65;339.60;1929.00;0.01;3.96;;;;;9.90;1.00;;;;;;2262418;61;1023;-87
2021/03/03 02:36:02;279397.00;0.93;482.50;9204.00;0.03;16.57;;;;;9.70;1.00;;;;;;2263139;61;1032;-88
2021/03/03 02:38:30;79057.00;0.26;137.41;0.00;0.00;0.62;;;;;9.60;1.00;;;;;;2268761;61;1358;-87
2021/03/03 02:40:57;131246.00;0.44;227.48;0.00;0.00;0.62;;;;;9.60;1.00;;;;;;2272221;61;955;-87
2021/03/03 02:45:55;218261.00;0.73;377.35;43148.00;0.14;75.33;;;;;9.10;1.00;;;;;;2282470;61;1408;-87
2021/03/03 02:48:22;20954.00;0.07;36.92;0.00;0.00;0.62;;;;;9.10;1.00;;;;;;2268086;61;1361;-87
2021/03/03 02:50:48;274537.00;0.92;474.14;20754.00;0.07;36.58;;;;;9.10;1.00;;;;;;2268139;61;1910;-88
2021/03/03 02:53:15;157743.00;0.53;273.15;0.00;0.00;0.62;;;;;8.90;1.00;;;;;;2261448;61;973;-88
2021/03/03 02:55:42;100852.00;0.34;175.04;0.00;0.00;0.62;;;;;8.80;1.00;;;;;;2268135;61;1046;-89
2021/03/03 02:58:08;21389.00;0.07;37.68;0.00;0.00;0.62;;;;;8.70;1.00;;;;;;2261410;61;1345;-88
2021/03/03 03:00:37;3627.00;0.01;6.91;0.00;0.00;0.62;;;;;8.40;1.00;;;;;;2268126;61;1064;-87
2021/03/03 03:03:12;623666.00;2.08;1075.10;45191.00;0.15;78.87;;;;;8.40;1.00;;;;;;2268118;61;1024;-90
2021/03/03 03:05:44;53250.00;0.18;92.81;0.00;0.00;0.62;;;;;8.00;1.00;;;;;;2263678;61;1044;-89
2021/03/03 03:08:14;191144.00;0.64;330.68;14436.00;0.05;25.63;;;;;7.80;1.00;;;;;;2280676;61;1392;-89
2021/03/03 03:10:42;4287.00;0.01;8.05;0.00;0.00;0.62;;;;;8.00;1.00;;;;;;2273504;61;1924;-87
2021/03/03 03:13:12;371813.00;1.24;641.35;78753.00;0.26;136.88;;;;;9.00;1.00;;;;;;2280722;61;1016;-87
2021/03/03 03:15:39;26910.00;0.09;47.23;0.00;0.00;0.62;;;;;10.00;1.00;;;;;;2272032;61;938;-90
2021/03/03 03:18:14;0.00;0.00;0.62;0.00;0.00;0.62;;;;;11.00;1.00;;;;;;2262080;61;1303;-90
2021/03/03 03:20:42;216420.00;0.72;374.18;0.00;0.00;0.62;;;;;11.70;1.00;;;;;;2262130;61;989;-89
2021/03/03 03:23:10;156470.00;0.52;270.96;0.00;0.00;0.62;;;;;12.30;1.00;;;;;;2262114;61;1013;-89
2021/03/03 03:25:40;163364.00;0.54;282.84;0.00;0.00;0.62;;;;;12.50;1.00;;;;;;2272134;61;1049;-89
2021/03/03 03:28:07;162649.00;0.54;281.60;0.00;0.00;0.62;;;;;12.70;1.00;;;;;;2271931;61;1702;-88
2021/03/03 03:30:35;31716.00;0.11;55.55;0.00;0.00;0.62;;;;;12.90;1.00;;;;;;2272076;61;2004;-90
2021/03/03 03:33:03;240893.00;0.80;416.29;40802.00;0.14;71.28;;;;;13.00;1.00;;;;;;2264003;61;1077;-90
2021/03/03 03:35:35;65927.00;0.22;114.72;0.00;0.00;0.62;;;;;12.80;1.00;;;;;;2280545;61;1670;-88
2021/03/03 03:38:02;31196.00;0.10;54.65;0.00;0.00;0.62;;;;;12.10;1.00;;;;;;2267923;61;1367;-88
2021/03/03 03:40:28;68452.00;0.23;119.09;0.00;0.00;0.62;;;;;11.70;1.00;;;;;;2258013;61;1043;-91
2021/03/03 03:42:56;106694.00;0.36;185.13;0.00;0.00;0.62;;;;;11.60;1.00;;;;;;2268021;61;1073;-89
2021/03/03 03:45:24;202356.00;0.67;349.98;8099.00;0.03;14.66;;;;;11.50;1.00;;;;;;2261178;61;1110;-89
2021/03/03 03:47:51;62544.00;0.21;108.87;0.00;0.00;0.62;;;;;10.80;1.00;;;;;;2267806;61;1276;-86
2021/03/03 03:50:20;0.00;0.00;0.62;0.00;0.00;0.62;;;;;10.40;1.00;;;;;;2267882;61;1989;-87
2021/03/03 03:52:51;228315.00;0.76;394.65;0.00;0.00;0.62;;;;;9.70;1.00;;;;;;2264482;61;1029;-87
2021/03/03 03:55:18;429152.00;1.43;739.93;62190.00;0.21;108.26;;;;;9.50;1.00;;;;;;2261960;61;987;-87
2021/03/03 03:57:49;203958.00;0.68;352.74;12716.00;0.04;22.65;;;;;9.50;1.00;;;;;;2271887;61;1420;-87
2021/03/03 04:00:19;90961.00;0.30;157.97;0.00;0.00;0.62;;;;;9.40;1.00;;;;;;2271982;61;1080;-87
2021/03/03 04:02:45;151989.00;0.51;263.24;0.00;0.00;0.62;;;;;9.00;1.00;;;;;;2271990;61;992;-89
2021/03/03 04:05:13;86317.00;0.29;149.95;0.00;0.00;0.62;;;;;8.80;1.00;;;;;;2271920;61;998;-87
2021/03/03 04:07:40;30462.00;0.10;53.38;0.00;0.00;0.62;;;;;8.80;1.00;;;;;;2259779;61;1466;-87
2021/03/03 04:10:11;95145.00;0.32;165.19;0.00;0.00;0.62;;;;;8.90;1.00;;;;;;2259813;61;998;-87
2021/03/03 04:12:37;12324.00;0.04;21.98;0.00;0.00;0.62;;;;;9.20;1.00;;;;;;2261431;61;1996;-89
2021/03/03 04:15:06;162700.00;0.54;281.69;30497.00;0.10;53.44;;;;;9.40;1.00;;;;;;2267881;61;977;-86
2021/03/03 04:17:32;429555.00;1.43;740.62;53035.00;0.18;92.43;;;;;9.30;1.00;;;;;;2267803;61;1383;-89
2021/03/03 04:19:58;45963.00;0.15;80.20;0.00;0.00;0.62;;;;;9.30;1.00;;;;;;2267856;61;1027;-87
2021/03/03 04:22:25;194521.00;0.65;336.49;0.00;0.00;0.62;;;;;9.60;1.00;;;;;;2267766;61;910;-88
2021/03/03 04:24:54;297845.00;0.99;514.22;10413.00;0.03;18.66;;;;;9.80;1.00;;;;;;2266222;61;977;-88
2021/03/03 04:29:53;120793.00;0.40;209.45;0.00;0.00;0.62;;;;;8.80;1.00;;;;;;2274097;61;1426;-89
2021/03/03 04:32:20;113886.00;0.38;197.53;0.00;0.00;0.62;;;;;8.50;1.00;;;;;;2272282;61;1927;-88
2021/03/03 04:34:47;200217.00;0.67;346.30;0.00;0.00;0.62;;;;;8.70;1.00;;;;;;2263641;61;956;-88
2021/03/03 04:37:13;211763.00;0.71;366.17;0.00;0.00;0.62;;;;;9.10;1.00;;;;;;2263854;61;1400;-88
2021/03/03 04:39:39;154014.00;0.51;266.72;0.00;0.00;0.62;;;;;9.40;1.00;;;;;;2263817;61;1024;-88
2021/03/03 04:42:06;176375.00;0.59;305.25;0.00;0.00;0.62;;;;;9.90;1.00;;;;;;2255720;61;934;-89
2021/03/03 04:44:33;223396.00;0.74;386.19;4616.00;0.02;8.62;;;;;10.20;1.00;;;;;;2252515;61;966;-90
2021/03/03 04:47:00;93384.00;0.31;162.15;0.00;0.00;0.62;;;;;10.80;1.00;;;;;;2255676;61;1357;-89
2021/03/03 04:49:30;9703.00;0.03;17.43;0.00;0.00;0.62;;;;;11.40;1.00;;;;;;2255665;61;1761;-89
2021/03/03 04:51:56;18215.00;0.06;32.18;0.00;0.00;0.62;;;;;12.10;1.00;;;;;;2256813;61;2006;-89
2021/03/03 04:54:23;18084.00;0.06;31.95;0.00;0.00;0.62;;;;;12.50;1.00;;;;;;2259724;61;965;-91
2021/03/03 04:56:49;190278.00;0.63;329.19;0.00;0.00;0.62;;;;;12.60;1.00;;;;;;2255611;61;1303;-89
2021/03/03 04:59:16;292642.00;0.98;505.27;0.00;0.00;0.62;;;;;12.70;1.00;;;;;;2257075;61;1785;-89
2021/03/03 05:01:42;143450.00;0.48;248.52;0.00;0.00;0.62;;;;;13.00;1.00;;;;;;2264490;61;1029;-89
2021/03/03 05:04:09;138198.00;0.46;239.46;0.00;0.00;0.62;;;;;13.20;1.00;;;;;;2252409;61;1075;-91
2021/03/03 05:06:36;620417.00;2.07;1069.49;102851.00;0.34;178.49;;;;;12.80;1.00;;;;;;2252461;61;1291;-90
2021/03/03 05:09:03;32136.00;0.11;56.28;0.00;0.00;0.62;;;;;12.80;1.00;;;;;;2244430;61;1046;-90
2021/03/03 05:11:29;77116.00;0.26;134.06;0.00;0.00;0.62;;;;;13.10;1.00;;;;;;2237371;61;1999;-89
2021/03/03 05:13:56;107595.00;0.36;186.68;0.00;0.00;0.62;;;;;13.10;1.00;;;;;;2238716;61;992;-90
2021/03/03 05:16:22;0.00;0.00;0.62;0.00;0.00;0.62;;;;;13.20;1.00;;;;;;2252397;61;1033;-91
2021/03/03 05:18:49;270812.00;0.90;467.74;8792.00;0.03;15.86;;;;;13.20;1.00;;;;;;2252342;61;1335;-90
2021/03/03 05:21:17;87620.00;0.29;152.20;0.00;0.00;0.62;;;;;13.30;1.00;;;;;;2248762;61;994;-91
2021/03/03 05:23:43;0.00;0.00;0.62;0.00;0.00;0.62;;;;;13.20;1.00;;;;;;2252306;61;1038;-90
2021/03/03 05:26:10;11169.00;0.04;19.97;0.00;0.00;0.62;;;;;13.10;1.00;;;;;;2252728;61;1125;-90
2021/03/03 05:28:36;69778.00;0.23;121.38;0.00;0.00;0.62;;;;;13.00;1.00;;;;;;2256588;61;1680;-91
2021/03/03 05:31:03;117975.00;0.39;204.59;0.00;0.00;0.62;;;;;13.00;1.00;;;;;;2260223;61;2019;-89
2021/03/03 05:33:30;33738.00;0.11;59.05;0.00;0.00;0.62;;;;;13.20;1.00;;;;;;2252311;61;1008;-90
2021/03/03 05:35:59;82624.00;0.28;143.57;0.00;0.00;0.62;;;;;13.20;1.00;;;;;;2252369;61;1004;-90
2021/03/03 05:38:27;196565.00;0.66;340.01;0.00;0.00;0.62;;;;;13.20;1.00;;;;;;2253247;61;1759;-91
2021/03/03 05:40:55;0.00;0.00;0.62;0.00;0.00;0.62;;;;;13.40;1.00;;;;;;2256301;61;956;-90
2021/03/03 05:43:22;114866.00;0.38;199.23;0.00;0.00;0.62;;;;;13.40;1.00;;;;;;2256213;61;1011;-90
2021/03/03 05:45:50;15222.00;0.05;27.00;0.00;0.00;0.62;;;;;13.50;1.00;;;;;;2248152;61;980;-91
2021/03/03 08:21:28;108815.00;0.36;188.79;0.00;0.00;0.62;;;;;12.40;1.00;;;;;;2546255;55;1792;31
2021/03/03 10:32:11;382905.00;1.28;660.42;95964.00;0.32;166.60;;;;;15.80;1.00;;;;;;2279533;61;1944;-91
2021/03/03 11:42:38;81073.00;0.27;140.89;0.00;0.00;0.62;;;;;16.20;1.00;;;;;;2518201;55;3591;31
2021/03/03 15:01:32;1634111.00;5.45;2898.11;37701.00;0.13;65.91;;;;;17.90;1.00;;;;;;2273885;60;1119;-89
2021/03/03 15:42:25;927661.00;3.09;1604.75;0.00;0.00;0.62;;;;;17.50;1.00;;;;;;2274051;61;1192;-89
2021/03/03 15:44:51;401654.00;1.34;692.65;0.00;0.00;0.62;;;;;17.70;1.00;;;;;;2272208;61;1066;-90
2021/03/03 15:49:53;1107711.00;3.69;1924.22;71562.00;0.24;124.46;;;;;18.00;1.00;;;;;;2282005;61;1411;-89
2021/03/03 15:52:20;342638.00;1.14;591.21;0.00;0.00;0.62;;;;;17.80;1.00;;;;;;2280194;61;1911;-89
2021/03/03 15:54:46;322457.00;1.07;556.52;0.00;0.00;0.62;;;;;17.60;1.00;;;;;;2271655;61;1021;-88
2021/03/03 18:21:12;1297409.00;4.32;2267.36;13488.00;0.04;23.99;;;;;15.90;1.00;;;;;;2342341;39;2034;31
2021/03/03 19:23:37;909660.00;3.03;1573.09;0.00;0.00;0.62;;;;;15.20;1.00;;;;;;2278998;61;1299;-89
2021/03/03 19:26:03;55383.00;0.18;96.49;0.00;0.00;0.62;;;;;15.50;1.00;;;;;;2267743;61;1077;-89
2021/03/03 19:28:30;520602.00;1.74;897.30;33169.00;0.11;58.07;;;;;15.30;1.00;;;;;;2255652;61;1412;-91
2021/03/03 19:35:56;317869.00;1.06;548.64;0.00;0.00;0.62;;;;;14.80;1.00;;;;;;2277841;61;1272;-91
2021/03/03 19:43:23;889653.00;2.97;1537.95;32449.00;0.11;56.82;;;;;14.60;1.00;;;;;;2278203;61;1202;-89
2021/03/03 19:45:50;409894.00;1.37;706.81;45048.00;0.15;78.62;;;;;14.30;1.00;;;;;;2267875;61;940;-90
2021/03/03 19:50:47;155758.00;0.52;269.73;0.00;0.00;0.62;;;;;14.20;1.00;;;;;;2278240;61;1311;-91
2021/03/03 19:53:13;256833.00;0.86;443.70;62430.00;0.21;108.68;;;;;14.40;1.00;;;;;;2267827;61;2059;-89
2021/03/03 19:55:40;351617.00;1.17;606.64;62954.00;0.21;109.58;;;;;14.80;1.00;;;;;;2261256;61;974;-89
2021/03/03 19:58:06;231801.00;0.77;400.65;0.00;0.00;0.62;;;;;15.00;1.00;;;;;;2257936;61;1344;-90
2021/03/03 20:00:34;82178.00;0.27;142.80;0.00;0.00;0.62;;;;;15.20;1.00;;;;;;2259818;61;1060;-90
2021/03/03 20:03:00;88953.00;0.30;154.50;0.00;0.00;0.62;;;;;15.40;1.00;;;;;;2259696;61;1048;-90
2021/03/03 20:05:27;155586.00;0.52;269.43;37803.00;0.13;66.09;;;;;15.50;1.00;;;;;;2255810;61;953;-89
2021/03/03 20:07:53;308849.00;1.03;533.13;0.00;0.00;0.62;;;;;15.50;1.00;;;;;;2255786;61;1401;-88
2021/03/03 20:10:20;35813.00;0.12;62.64;0.00;0.00;0.62;;;;;15.40;1.00;;;;;;2255754;61;1517;-91
2021/03/03 20:12:48;44392.00;0.15;77.49;0.00;0.00;0.62;;;;;15.40;1.00;;;;;;2252380;61;2003;-89
2021/03/03 20:15:16;114448.00;0.38;198.50;0.00;0.00;0.62;;;;;15.50;1.00;;;;;;2249150;61;957;-88
2021/03/03 20:17:44;287146.00;0.96;495.82;44160.00;0.15;77.09;;;;;15.60;1.00;;;;;;2248244;61;1409;-89
2021/03/03 20:20:13;128119.00;0.43;222.09;6326.00;0.02;11.58;;;;;15.40;1.00;;;;;;2256724;61;1065;-88
2021/03/03 20:22:40;225619.00;0.75;390.01;0.00;0.00;0.62;;;;;15.20;1.00;;;;;;2263216;61;1043;-89
2021/03/03 20:25:09;203298.00;0.68;351.60;25915.00;0.09;45.51;;;;;15.20;1.00;;;;;;2252295;61;1067;-87
2021/03/03 20:27:37;396458.00;1.32;683.72;23805.00;0.08;41.86;;;;;15.40;1.00;;;;;;2255675;61;988;-89
2021/03/03 20:30:05;104671.00;0.35;181.63;0.00;0.00;0.62;;;;;15.50;1.00;;;;;;2247671;61;1349;-88
2021/03/03 20:32:32;81786.00;0.27;142.12;0.00;0.00;0.62;;;;;15.70;1.00;;;;;;2239759;62;2003;-89
2021/03/03 20:34:59;124351.00;0.41;215.59;0.00;0.00;0.62;;;;;15.50;1.00;;;;;;2240558;62;1034;-90
2021/03/03 20:37:26;132487.00;0.44;229.62;0.00;0.00;0.62;;;;;15.50;1.00;;;;;;2243856;61;1031;-88
2021/03/03 20:39:52;77799.00;0.26;135.24;0.00;0.00;0.62;;;;;15.60;1.00;;;;;;2243712;61;1445;-89
2021/03/03 20:42:19;256850.00;0.86;443.73;0.00;0.00;0.62;;;;;15.70;1.00;;;;;;2244392;61;1056;-90
2021/03/03 20:44:46;567815.00;1.89;978.68;151735.00;0.51;262.80;;;;;15.80;1.00;;;;;;2240860;61;1012;-88
2021/03/03 20:47:13;325672.00;1.09;562.05;56565.00;0.19;98.54;;;;;15.90;1.00;;;;;;2239804;62;969;-88
2021/03/03 20:49:39;11077.00;0.04;19.82;0.00;0.00;0.62;;;;;16.10;1.00;;;;;;2240612;61;1403;-88
2021/03/03 20:52:08;93621.00;0.31;162.56;0.00;0.00;0.62;;;;;16.00;1.00;;;;;;2247656;61;1924;-88
2021/03/03 20:54:35;121244.00;0.40;210.23;24790.00;0.08;43.56;;;;;15.80;1.00;;;;;;2248704;61;958;-89
2021/03/03 20:57:02;470297.00;1.57;810.70;40531.00;0.14;70.81;;;;;15.70;1.00;;;;;;2255796;61;1033;-90
2021/03/03 20:59:28;294269.00;0.98;508.07;34751.00;0.12;60.81;;;;;15.50;1.00;;;;;;2255652;61;1302;-91
2021/03/03 21:01:55;171369.00;0.57;296.62;0.00;0.00;0.62;;;;;15.50;1.00;;;;;;2256676;61;1568;-90
2021/03/03 21:04:21;106099.00;0.35;184.10;0.00;0.00;0.62;;;;;15.50;1.00;;;;;;2265256;61;976;-89
2021/03/03 21:06:48;96584.00;0.32;167.68;0.00;0.00;0.62;;;;;15.30;1.00;;;;;;2276283;61;1078;-90
2021/03/03 21:09:15;222890.00;0.74;385.32;0.00;0.00;0.62;;;;;15.30;1.00;;;;;;2276335;61;1309;-88
2021/03/03 21:11:42;100763.00;0.34;174.89;0.00;0.00;0.62;;;;;15.20;1.00;;;;;;2276288;61;1998;-89
2021/03/03 21:14:10;39539.00;0.13;69.09;0.00;0.00;0.62;;;;;15.40;1.00;;;;;;2276324;61;1004;-90
2021/03/03 21:16:37;43518.00;0.15;75.97;0.00;0.00;0.62;;;;;15.70;1.00;;;;;;2263646;61;927;-90
2021/03/03 21:19:04;68290.00;0.23;118.81;0.00;0.00;0.62;;;;;15.90;1.00;;;;;;2263675;61;1256;-90
2021/03/03 21:21:31;0.00;0.00;0.62;0.00;0.00;0.62;;;;;16.10;1.00;;;;;;2263606;61;961;-88
2021/03/03 21:23:58;73986.00;0.25;128.65;0.00;0.00;0.62;;;;;16.30;1.00;;;;;;2255649;61;983;-88
2021/03/03 21:26:25;236910.00;0.79;409.44;17847.00;0.06;31.54;;;;;16.20;1.00;;;;;;2255660;61;1020;-88
2021/03/03 21:28:52;77161.00;0.26;134.13;0.00;0.00;0.62;;;;;15.80;1.00;;;;;;2255693;61;1412;-88
2021/03/03 21:31:18;271052.00;0.90;468.15;26774.00;0.09;47.00;;;;;15.60;1.00;;;;;;2255725;61;1043;-89
2021/03/03 21:33:45;83342.00;0.28;144.81;0.00;0.00;0.62;;;;;15.30;1.00;;;;;;2256147;61;2025;-90
2021/03/03 21:36:11;135965.00;0.45;235.61;0.00;0.00;0.62;;;;;15.30;1.00;;;;;;2259686;61;969;-90
2021/03/03 21:38:38;84238.00;0.28;146.36;0.00;0.00;0.62;;;;;15.30;1.00;;;;;;2259652;61;1350;-90
2021/03/03 21:41:04;171602.00;0.57;297.03;0.00;0.00;0.62;;;;;15.00;1.00;;;;;;2256208;61;947;-90
2021/03/03 21:43:32;270682.00;0.90;467.52;24052.00;0.08;42.29;;;;;14.70;1.00;;;;;;2260399;61;1027;-90
2021/03/03 21:45:59;88001.00;0.29;152.86;0.00;0.00;0.62;;;;;14.40;1.00;;;;;;2260349;61;1039;-90
2021/03/03 21:48:26;66726.00;0.22;116.10;0.00;0.00;0.62;;;;;14.40;1.00;;;;;;2253629;61;1420;-91
2021/03/03 21:50:53;75783.00;0.25;131.75;0.00;0.00;0.62;;;;;14.30;1.00;;;;;;2252752;61;1057;-90
2021/03/03 21:53:20;91933.00;0.31;159.65;0.00;0.00;0.62;;;;;14.60;1.00;;;;;;2256193;61;1912;-90
2021/03/03 21:55:46;3197.00;0.01;6.16;0.00;0.00;0.62;;;;;14.90;1.00;;;;;;2256192;61;1063;-89
2021/03/03 21:58:13;170539.00;0.57;295.20;0.00;0.00;0.62;;;;;15.10;1.00;;;;;;2250626;61;1311;-89
2021/03/03 22:00:40;544304.00;1.81;938.14;39772.00;0.13;69.49;;;;;15.20;1.00;;;;;;2264276;61;1021;-89
2021/03/03 22:03:07;19062.00;0.06;33.65;0.00;0.00;0.62;;;;;15.20;1.00;;;;;;2254282;61;949;-88
2021/03/03 22:05:33;63318.00;0.21;110.21;0.00;0.00;0.62;;;;;15.50;1.00;;;;;;2264187;61;1019;-90
2021/03/03 22:08:00;170457.00;0.57;295.05;0.00;0.00;0.62;;;;;15.70;1.00;;;;;;2257401;61;1273;-89
2021/03/03 22:10:26;143877.00;0.48;249.25;0.00;0.00;0.62;;;;;15.50;1.00;;;;;;2264078;61;1041;-89
2021/03/03 22:12:56;313990.00;1.05;541.97;66433.00;0.22;115.60;;;;;15.30;1.00;;;;;;2264040;61;1976;-90
2021/03/03 22:15:23;229782.00;0.77;397.17;10997.00;0.04;19.68;;;;;15.40;1.00;;;;;;2254163;61;992;-90
2021/03/03 22:17:50;144776.00;0.48;250.80;0.00;0.00;0.62;;;;;15.20;1.00;;;;;;2260036;61;1377;-90
2021/03/03 22:20:17;4998.00;0.02;9.28;0.00;0.00;0.62;;;;;15.40;1.00;;;;;;2256002;61;1019;-89
2021/03/03 22:22:43;87119.00;0.29;151.33;0.00;0.00;0.62;;;;;15.60;1.00;;;;;;2256107;61;1070;-89
2021/03/03 22:25:10;168483.00;0.56;291.65;0.00;0.00;0.62;;;;;15.80;1.00;;;;;;2256570;61;1042;-90
2021/03/03 22:27:41;81072.00;0.27;140.89;0.00;0.00;0.62;;;;;16.00;1.00;;;;;;2256023;61;1057;-88
2021/03/03 22:30:09;106700.00;0.36;185.14;0.00;0.00;0.62;;;;;16.10;1.00;;;;;;2256074;61;1066;-89
2021/03/03 22:32:36;89037.00;0.30;154.64;0.00;0.00;0.62;;;;;16.20;1.00;;;;;;2252723;61;1916;-89
2021/03/03 22:35:04;0.00;0.00;0.62;0.00;0.00;0.62;;;;;16.40;1.00;;;;;;2249344;61;971;-90
2021/03/03 22:37:31;54764.00;0.18;95.42;0.00;0.00;0.62;;;;;16.40;1.00;;;;;;2256821;61;1114;-89
2021/03/03 22:39:57;82825.00;0.28;143.92;0.00;0.00;0.62;;;;;16.50;1.00;;;;;;2260147;61;1489;-88
2021/03/03 22:42:25;26737.00;0.09;46.93;0.00;0.00;0.62;;;;;16.60;1.00;;;;;;2260185;61;1054;-90
2021/03/03 22:44:51;37250.00;0.12;65.13;0.00;0.00;0.62;;;;;16.70;1.00;;;;;;2252200;61;1050;-88
2021/03/03 22:47:18;3628.00;0.01;6.91;0.00;0.00;0.62;;;;;16.80;1.00;;;;;;2268696;61;1064;-90
2021/03/03 22:49:46;147342.00;0.49;255.23;0.00;0.00;0.62;;;;;16.80;1.00;;;;;;2268642;61;1469;-88
2021/03/03 22:52:13;128495.00;0.43;222.73;0.00;0.00;0.62;;;;;16.80;1.00;;;;;;2262611;61;2000;-88
2021/03/03 22:54:39;122710.00;0.41;212.76;0.00;0.00;0.62;;;;;16.80;1.00;;;;;;2266221;61;953;-89
2021/03/03 22:57:07;49451.00;0.16;86.24;0.00;0.00;0.62;;;;;16.80;1.00;;;;;;2267939;61;990;-89
2021/03/03 22:59:34;45609.00;0.15;79.59;0.00;0.00;0.62;;;;;16.50;1.00;;;;;;2267992;61;1471;-89
2021/03/03 23:02:02;15242.00;0.05;27.03;0.00;0.00;0.62;;;;;16.20;1.00;;;;;;2268007;61;952;-89
2021/03/03 23:04:29;66652.00;0.22;115.97;0.00;0.00;0.62;;;;;16.20;1.00;;;;;;2268028;61;1024;-88
2021/03/03 23:06:55;501525.00;1.67;864.45;44024.00;0.15;76.85;;;;;16.20;1.00;;;;;;2264701;61;953;-88
2021/03/03 23:09:23;39785.00;0.13;69.52;0.00;0.00;0.62;;;;;16.20;1.00;;;;;;2267946;61;1262;-88
2021/03/03 23:11:51;0.00;0.00;0.62;0.00;0.00;0.62;;;;;16.50;1.00;;;;;;2268005;61;2010;-89
2021/03/03 23:14:18;90174.00;0.30;156.61;0.00;0.00;0.62;;;;;16.50;1.00;;;;;;2259325;61;1034;-90
2021/03/03 23:16:44;76060.00;0.25;132.23;0.00;0.00;0.62;;;;;16.40;1.00;;;;;;2276545;61;1012;-89
2021/03/03 23:19:11;384993.00;1.28;664.01;114570.00;0.38;198.72;;;;;16.10;1.00;;;;;;2266103;61;1335;-87
2021/03/03 23:21:38;105464.00;0.35;183.00;1108.00;0.00;2.54;;;;;16.10;1.00;;;;;;2272800;61;1001;-88
2021/03/03 23:24:07;90301.00;0.30;156.83;15273.00;0.05;27.08;;;;;16.30;1.00;;;;;;2263934;61;984;-88
2021/03/03 23:26:34;307579.00;1.03;530.95;0.00;0.00;0.62;;;;;16.30;1.00;;;;;;2257323;61;952;-88
2021/03/03 23:29:01;270696.00;0.90;467.54;78011.00;0.26;135.60;;;;;16.20;1.00;;;;;;2263976;61;1373;-89